createdAt,value
2022-09-28T00:29:08.530Z,986.52
2022-09-28T00:29:49.053Z,986.62
2022-09-28T00:30:29.525Z,986.52
2022-09-28T00:31:10.061Z,986.58
2022-09-28T00:31:50.541Z,986.6
2022-09-28T00:32:31.022Z,986.6
2022-09-28T00:33:11.517Z,986.59
2022-09-28T00:33:52.013Z,986.59
2022-09-28T00:34:32.508Z,986.6
2022-09-28T00:35:12.967Z,986.56
2022-09-28T00:35:53.520Z,986.59
2022-09-28T00:36:33.992Z,986.57
2022-09-28T00:37:14.495Z,986.56
2022-09-28T00:37:55.031Z,986.59
2022-09-28T00:38:35.530Z,986.56
2022-09-28T00:39:16.110Z,986.52
2022-09-28T00:39:56.462Z,986.55
2022-09-28T00:40:36.972Z,986.53
2022-09-28T00:41:17.455Z,986.53
2022-09-28T00:41:57.937Z,986.55
2022-09-28T00:42:38.400Z,986.5
2022-09-28T00:43:18.876Z,986.49
2022-09-28T00:43:59.335Z,986.47
2022-09-28T00:44:39.883Z,986.47
2022-09-28T00:46:00.924Z,986.49
2022-09-28T00:46:41.423Z,986.47
2022-09-28T00:47:21.960Z,986.43
2022-09-28T00:48:02.484Z,986.45
2022-09-28T00:48:42.947Z,986.41
2022-09-28T00:49:23.416Z,986.45
2022-09-28T00:50:03.908Z,986.42
2022-09-28T00:50:44.375Z,986.41
2022-09-28T00:51:24.876Z,986.42
2022-09-28T00:52:05.306Z,986.39
2022-09-28T00:52:45.792Z,986.43
2022-09-28T00:53:26.335Z,986.4
2022-09-28T00:54:06.738Z,986.38
2022-09-28T00:54:47.204Z,986.42
2022-09-28T00:55:27.742Z,986.44
2022-09-28T00:56:08.189Z,986.45
2022-09-28T00:56:48.753Z,986.47
2022-09-28T00:57:29.174Z,986.44
2022-09-28T00:58:50.155Z,986.47
2022-09-28T00:59:30.632Z,986.44
2022-09-28T01:00:11.191Z,986.44
2022-09-28T01:00:51.664Z,986.42
2022-09-28T01:01:32.199Z,986.43
2022-09-28T01:02:12.702Z,986.41
2022-09-28T01:02:53.211Z,986.4
2022-09-28T01:03:33.729Z,986.42
2022-09-28T01:04:14.257Z,986.42
2022-09-28T01:04:54.744Z,986.43
2022-09-28T01:05:35.280Z,986.39
2022-09-28T01:06:15.733Z,986.39
2022-09-28T01:06:56.223Z,986.36
2022-09-28T01:07:36.736Z,986.35
2022-09-28T01:08:17.278Z,986.35
2022-09-28T01:08:57.733Z,986.38
2022-09-28T01:09:38.220Z,986.32
2022-09-28T01:10:18.710Z,986.33
2022-09-28T01:10:59.268Z,986.35
2022-09-28T01:11:39.687Z,986.36
2022-09-28T01:12:20.191Z,986.3
2022-09-28T01:13:00.647Z,986.33
2022-09-28T01:13:41.111Z,986.31
2022-09-28T01:14:21.619Z,986.27
2022-09-28T01:15:02.061Z,986.27
2022-09-28T01:15:42.615Z,986.29
2022-09-28T01:16:23.125Z,986.3
2022-09-28T01:17:03.553Z,986.3
2022-09-28T01:17:44.050Z,986.28
2022-09-28T01:18:24.554Z,986.28
2022-09-28T01:19:05.059Z,986.34
2022-09-28T01:19:45.496Z,986.35
2022-09-28T01:20:25.982Z,986.35
2022-09-28T01:21:06.510Z,986.33
2022-09-28T01:21:46.976Z,986.34
2022-09-28T01:22:27.441Z,986.34
2022-09-28T01:23:07.956Z,986.37
2022-09-28T01:23:48.397Z,986.33
2022-09-28T01:24:28.867Z,986.33
2022-09-28T01:25:09.327Z,986.37
2022-09-28T01:25:49.816Z,986.33
2022-09-28T01:26:30.334Z,986.37
2022-09-28T01:27:10.852Z,986.37
2022-09-28T01:27:51.297Z,986.35
2022-09-28T01:28:31.765Z,986.35
2022-09-28T01:29:12.252Z,986.37
2022-09-28T01:29:52.714Z,986.34
2022-09-28T01:30:33.230Z,986.38
2022-09-28T01:31:13.756Z,986.35
2022-09-28T01:31:54.182Z,986.33
2022-09-28T01:32:34.667Z,986.37
2022-09-28T01:33:15.136Z,986.35
2022-09-28T01:33:55.649Z,986.36
2022-09-28T01:34:36.126Z,986.34
2022-09-28T01:35:16.600Z,986.33
2022-09-28T01:38:15.210Z,986.34
2022-09-28T01:38:55.626Z,986.34
2022-09-28T01:39:36.095Z,986.33
2022-09-28T01:40:16.614Z,986.34
2022-09-28T01:40:57.038Z,986.31
2022-09-28T01:41:37.450Z,986.37
2022-09-28T01:42:17.935Z,986.36
2022-09-28T01:42:58.417Z,986.37
2022-09-28T01:43:38.934Z,986.37
2022-09-28T01:44:19.503Z,986.32
2022-09-28T01:44:59.982Z,986.3
2022-09-28T01:45:40.483Z,986.31
2022-09-28T01:46:21.017Z,986.32
2022-09-28T01:47:01.416Z,986.35
2022-09-28T01:47:41.897Z,986.34
2022-09-28T01:48:22.402Z,986.28
2022-09-28T01:49:02.883Z,986.31
2022-09-28T01:49:43.344Z,986.31
2022-09-28T01:50:23.811Z,986.25
2022-09-28T01:51:04.290Z,986.29
2022-09-28T01:51:44.774Z,986.26
2022-09-28T01:52:25.251Z,986.23
2022-09-28T01:53:05.743Z,986.27
2022-09-28T01:53:46.247Z,986.23
2022-09-28T01:54:26.737Z,986.26
2022-09-28T01:55:07.194Z,986.26
2022-09-28T01:55:47.679Z,986.27
2022-09-28T01:56:28.137Z,986.23
2022-09-28T01:57:08.593Z,986.25
2022-09-28T01:57:49.087Z,986.25
2022-09-28T01:58:29.591Z,986.24
2022-09-28T01:59:10.141Z,986.21
2022-09-28T01:59:50.534Z,986.21
2022-09-28T02:00:31.035Z,986.22
2022-09-28T02:01:11.571Z,986.18
2022-09-28T02:04:10.237Z,986.22
2022-09-28T02:04:50.516Z,986.21
2022-09-28T02:05:30.985Z,986.23
2022-09-28T02:06:11.508Z,986.16
2022-09-28T02:06:51.981Z,986.18
2022-09-28T02:07:32.473Z,986.16
2022-09-28T02:08:12.964Z,986.21
2022-09-28T02:08:53.441Z,986.21
2022-09-28T02:09:33.999Z,986.23
2022-09-28T02:10:14.400Z,986.22
2022-09-28T02:10:54.877Z,986.19
2022-09-28T02:11:35.354Z,986.18
2022-09-28T02:12:15.824Z,986.19
2022-09-28T02:12:59.201Z,986.21
2022-09-28T02:13:40.465Z,986.2
2022-09-28T02:14:20.955Z,986.21
2022-09-28T02:15:01.461Z,986.23
2022-09-28T02:15:41.891Z,986.21
2022-09-28T02:16:22.442Z,986.18
2022-09-28T02:17:02.893Z,986.22
2022-09-28T02:17:43.372Z,986.21
2022-09-28T02:18:23.846Z,986.22
2022-09-28T02:19:11.208Z,986.21
2022-09-28T02:22:22.261Z,986.26
2022-09-28T02:23:04.736Z,986.25
2022-09-28T02:23:44.658Z,986.28
2022-09-28T02:24:25.144Z,986.19
2022-09-28T02:25:05.632Z,986.25
2022-09-28T02:25:46.089Z,986.22
2022-09-28T02:26:26.590Z,986.28
2022-09-28T02:27:07.113Z,986.26
2022-09-28T02:27:47.606Z,986.21
2022-09-28T02:28:28.120Z,986.2
2022-09-28T02:29:49.046Z,986.17
2022-09-28T02:30:29.540Z,986.17
2022-09-28T02:31:10.072Z,986.2
2022-09-28T02:31:50.523Z,986.19
2022-09-28T02:32:30.961Z,986.18
2022-09-28T02:33:11.451Z,986.18
2022-09-28T02:33:51.970Z,986.21
2022-09-28T02:34:32.501Z,986.22
2022-09-28T02:35:12.943Z,986.17
2022-09-28T02:35:53.500Z,986.22
2022-09-28T02:36:33.957Z,986.18
2022-09-28T02:37:14.473Z,986.22
2022-09-28T02:37:54.968Z,986.24
2022-09-28T02:38:35.428Z,986.19
2022-09-28T02:39:15.938Z,986.22
2022-09-28T02:39:56.509Z,986.23
2022-09-28T02:40:37.016Z,986.22
2022-09-28T02:41:17.457Z,986.21
2022-09-28T02:41:57.903Z,986.27
2022-09-28T02:42:38.370Z,986.27
2022-09-28T02:43:18.916Z,986.24
2022-09-28T02:43:59.452Z,986.24
2022-09-28T02:44:39.855Z,986.25
2022-09-28T02:45:20.378Z,986.25
2022-09-28T02:46:00.932Z,986.26
2022-09-28T02:46:41.288Z,986.24
2022-09-28T02:47:21.832Z,986.23
2022-09-28T02:48:02.267Z,986.26
2022-09-28T02:48:44.187Z,986.23
2022-09-28T02:49:23.453Z,986.23
2022-09-28T02:50:03.781Z,986.26
2022-09-28T02:50:44.308Z,986.23
2022-09-28T02:51:24.809Z,986.25
2022-09-28T02:52:05.228Z,986.28
2022-09-28T02:52:45.733Z,986.28
2022-09-28T02:53:26.203Z,986.29
2022-09-28T02:54:06.674Z,986.28
2022-09-28T02:54:47.146Z,986.24
2022-09-28T02:55:27.627Z,986.25
2022-09-28T02:56:08.169Z,986.27
2022-09-28T02:56:48.666Z,986.26
2022-09-28T02:57:29.145Z,986.26
2022-09-28T02:58:09.586Z,986.29
2022-09-28T02:58:50.057Z,986.31
2022-09-28T02:59:30.604Z,986.29
2022-09-28T03:00:11.016Z,986.3
2022-09-28T03:00:51.523Z,986.29
2022-09-28T03:01:32.034Z,986.32
2022-09-28T03:02:12.588Z,986.32
2022-09-28T03:02:53.019Z,986.34
2022-09-28T03:03:33.442Z,986.32
2022-09-28T03:04:13.914Z,986.33
2022-09-28T03:04:54.425Z,986.31
2022-09-28T03:05:34.928Z,986.31
2022-09-28T03:06:15.329Z,986.35
2022-09-28T03:06:55.953Z,986.36
2022-09-28T03:07:36.429Z,986.38
2022-09-28T03:08:16.927Z,986.37
2022-09-28T03:09:37.891Z,986.32
2022-09-28T03:10:18.394Z,986.33
2022-09-28T03:10:58.817Z,986.32
2022-09-28T03:11:39.295Z,986.32
2022-09-28T03:12:19.762Z,986.38
2022-09-28T03:13:00.242Z,986.35
2022-09-28T03:13:40.741Z,986.38
2022-09-28T03:14:21.183Z,986.34
2022-09-28T03:15:01.671Z,986.36
2022-09-28T03:15:45.285Z,986.37
2022-09-28T03:16:22.666Z,986.34
2022-09-28T03:17:03.340Z,986.35
2022-09-28T03:17:43.759Z,986.34
2022-09-28T03:18:24.241Z,986.37
2022-09-28T03:19:04.770Z,986.35
2022-09-28T03:19:45.247Z,986.31
2022-09-28T03:20:25.742Z,986.32
2022-09-28T03:21:06.259Z,986.36
2022-09-28T03:21:46.730Z,986.33
2022-09-28T03:22:27.173Z,986.37
2022-09-28T03:23:48.186Z,986.37
2022-09-28T03:24:28.716Z,986.35
2022-09-28T03:25:09.167Z,986.39
2022-09-28T03:25:49.624Z,986.34
2022-09-28T03:26:30.110Z,986.35
2022-09-28T03:27:10.609Z,986.36
2022-09-28T03:27:51.080Z,986.35
2022-09-28T03:28:31.590Z,986.33
2022-09-28T03:29:12.065Z,986.32
2022-09-28T03:29:52.638Z,986.34
2022-09-28T03:33:21.558Z,986.35
2022-09-28T03:34:01.975Z,986.36
2022-09-28T03:34:42.452Z,986.36
2022-09-28T03:35:22.947Z,986.34
2022-09-28T03:36:03.465Z,986.35
2022-09-28T03:36:44.029Z,986.36
2022-09-28T03:37:24.405Z,986.33
2022-09-28T03:38:04.898Z,986.3
2022-09-28T03:38:45.370Z,986.29
2022-09-28T03:39:25.884Z,986.36
2022-09-28T03:40:06.410Z,986.31
2022-09-28T03:40:46.951Z,986.36
2022-09-28T03:41:27.335Z,986.35
2022-09-28T03:42:07.810Z,986.35
2022-09-28T03:42:48.263Z,986.33
2022-09-28T03:43:28.767Z,986.35
2022-09-28T03:44:09.239Z,986.38
2022-09-28T03:44:49.673Z,986.4
2022-09-28T03:45:30.228Z,986.39
2022-09-28T03:46:10.724Z,986.4
2022-09-28T03:46:51.166Z,986.42
2022-09-28T03:47:31.618Z,986.37
2022-09-28T03:48:12.106Z,986.43
2022-09-28T03:48:52.533Z,986.42
2022-09-28T03:49:33.525Z,986.4
2022-09-28T03:50:13.539Z,986.43
2022-09-28T03:50:54.049Z,986.41
2022-09-28T03:51:34.544Z,986.37
2022-09-28T03:52:15.030Z,986.44
2022-09-28T03:52:55.474Z,986.44
2022-09-28T03:53:35.926Z,986.36
2022-09-28T03:54:16.409Z,986.43
2022-09-28T03:54:56.872Z,986.43
2022-09-28T03:55:37.357Z,986.43
2022-09-28T03:56:17.803Z,986.38
2022-09-28T03:56:58.282Z,986.43
2022-09-28T03:57:38.797Z,986.39
2022-09-28T03:58:19.247Z,986.41
2022-09-28T03:58:59.753Z,986.42
2022-09-28T03:59:40.219Z,986.42
2022-09-28T04:00:20.687Z,986.39
2022-09-28T04:01:01.275Z,986.45
2022-09-28T04:01:41.820Z,986.37
2022-09-28T04:02:22.152Z,986.4
2022-09-28T04:03:02.606Z,986.4
2022-09-28T04:03:43.118Z,986.37
2022-09-28T04:05:04.117Z,986.41
2022-09-28T04:05:44.573Z,986.39
2022-09-28T04:06:25.046Z,986.37
2022-09-28T04:07:05.498Z,986.36
2022-09-28T04:07:46.011Z,986.42
2022-09-28T04:08:26.490Z,986.36
2022-09-28T04:09:07.017Z,986.41
2022-09-28T04:09:47.509Z,986.39
2022-09-28T04:10:27.978Z,986.36
2022-09-28T04:11:08.514Z,986.37
2022-09-28T04:12:03.170Z,986.37
2022-09-28T04:12:29.504Z,986.39
2022-09-28T04:13:09.957Z,986.36
2022-09-28T04:13:50.431Z,986.38
2022-09-28T04:14:30.951Z,986.37
2022-09-28T04:15:11.475Z,986.36
2022-09-28T04:15:51.953Z,986.32
2022-09-28T04:16:33.091Z,986.4
2022-09-28T04:17:28.035Z,986.4
2022-09-28T04:18:12.035Z,986.4
2022-09-28T04:18:59.039Z,986.4
2022-09-28T04:19:44.034Z,986.39
2022-09-28T04:21:06.325Z,986.42
2022-09-28T04:21:46.809Z,986.4
2022-09-28T04:22:27.319Z,986.38
2022-09-28T04:23:07.827Z,986.41
2022-09-28T04:23:48.306Z,986.42
2022-09-28T04:24:28.791Z,986.46
2022-09-28T04:25:09.267Z,986.43
2022-09-28T04:25:49.868Z,986.43
2022-09-28T04:26:30.365Z,986.42
2022-09-28T04:27:10.865Z,986.43
2022-09-28T04:27:51.426Z,986.48
2022-09-28T04:28:31.935Z,986.44
2022-09-28T04:29:12.409Z,986.49
2022-09-28T04:29:52.924Z,986.46
2022-09-28T04:30:33.440Z,986.51
2022-09-28T04:31:14.048Z,986.53
2022-09-28T04:31:54.549Z,986.49
2022-09-28T04:32:34.907Z,986.51
2022-09-28T04:33:56.333Z,986.52
2022-09-28T04:34:39.652Z,986.52
2022-09-28T04:35:17.287Z,986.5
2022-09-28T04:35:57.828Z,986.51
2022-09-28T04:36:38.331Z,986.47
2022-09-28T04:37:19.556Z,986.48
2022-09-28T04:38:00.024Z,986.54
2022-09-28T04:38:55.757Z,986.54
2022-09-28T04:39:21.075Z,986.5
2022-09-28T04:40:01.530Z,986.54
2022-09-28T04:41:22.721Z,986.53
2022-09-28T04:42:02.976Z,986.53
2022-09-28T04:42:43.448Z,986.5
2022-09-28T04:43:23.913Z,986.5
2022-09-28T04:44:04.407Z,986.53
2022-09-28T04:44:44.878Z,986.53
2022-09-28T04:45:25.451Z,986.5
2022-09-28T04:46:05.893Z,986.49
2022-09-28T04:46:46.328Z,986.53
2022-09-28T04:47:26.801Z,986.59
2022-09-28T04:48:07.287Z,986.57
2022-09-28T04:51:06.214Z,986.56
2022-09-28T04:51:46.889Z,986.56
2022-09-28T04:55:20.966Z,986.54
2022-09-28T04:56:01.547Z,986.52
2022-09-28T04:56:41.991Z,986.51
2022-09-28T04:57:22.516Z,986.55
2022-09-28T04:58:02.987Z,986.56
2022-09-28T04:58:43.442Z,986.56
2022-09-28T04:59:23.974Z,986.59
2022-09-28T05:00:04.426Z,986.56
2022-09-28T05:01:25.481Z,986.57
2022-09-28T05:02:06.023Z,986.6
2022-09-28T05:02:46.443Z,986.59
2022-09-28T05:03:26.982Z,986.57
2022-09-28T05:04:07.415Z,986.58
2022-09-28T05:04:47.959Z,986.56
2022-09-28T05:05:28.474Z,986.61
2022-09-28T05:06:08.924Z,986.58
2022-09-28T05:06:49.409Z,986.6
2022-09-28T05:07:29.943Z,986.59
2022-09-28T05:08:50.977Z,986.64
2022-09-28T05:09:33.959Z,986.59
2022-09-28T05:10:11.978Z,986.6
2022-09-28T05:10:52.546Z,986.58
2022-09-28T05:11:33.082Z,986.58
2022-09-28T05:12:13.526Z,986.63
2022-09-28T05:12:54.009Z,986.62
2022-09-28T05:13:34.522Z,986.63
2022-09-28T05:14:15.090Z,986.66
2022-09-28T05:14:55.530Z,986.64
2022-09-28T05:15:36.160Z,986.62
2022-09-28T05:16:16.673Z,986.6
2022-09-28T05:16:57.241Z,986.6
2022-09-28T05:17:37.655Z,986.61
2022-09-28T05:18:18.193Z,986.59
2022-09-28T05:18:58.726Z,986.62
2022-09-28T05:19:39.271Z,986.56
2022-09-28T05:20:19.692Z,986.57
2022-09-28T05:21:00.134Z,986.6
2022-09-28T05:21:40.664Z,986.61
2022-09-28T05:22:21.165Z,986.57
2022-09-28T05:23:01.643Z,986.63
2022-09-28T05:23:42.453Z,986.63
2022-09-28T05:24:23.012Z,986.6
2022-09-28T05:25:03.481Z,986.61
2022-09-28T05:25:44.103Z,986.62
2022-09-28T05:26:24.717Z,986.61
2022-09-28T05:27:05.197Z,986.61
2022-09-28T05:27:45.687Z,986.59
2022-09-28T05:28:26.255Z,986.58
2022-09-28T05:29:06.721Z,986.58
2022-09-28T05:29:47.220Z,986.58
2022-09-28T05:30:27.778Z,986.61
2022-09-28T05:31:08.236Z,986.57
2022-09-28T05:31:48.814Z,986.58
2022-09-28T05:32:29.268Z,986.6
2022-09-28T05:33:09.961Z,986.55
2022-09-28T05:33:50.533Z,986.59
2022-09-28T05:34:31.076Z,986.58
2022-09-28T05:35:11.595Z,986.62
2022-09-28T05:35:54.486Z,986.62
2022-09-28T05:36:32.761Z,986.62
2022-09-28T05:37:13.318Z,986.56
2022-09-28T05:37:54.640Z,986.6
2022-09-28T05:38:35.195Z,986.59
2022-09-28T05:39:16.381Z,986.6
2022-09-28T05:39:58.724Z,986.57
2022-09-28T05:40:39.251Z,986.6
2022-09-28T05:41:19.663Z,986.6
2022-09-28T05:42:01.525Z,986.6
2022-09-28T05:42:42.140Z,986.59
2022-09-28T05:43:22.624Z,986.62
2022-09-28T05:44:03.724Z,986.63
2022-09-28T05:44:45.548Z,986.6
2022-09-28T05:45:26.086Z,986.58
2022-09-28T05:46:06.712Z,986.59
2022-09-28T05:46:47.125Z,986.61
2022-09-28T05:47:27.651Z,986.6
2022-09-28T05:48:08.177Z,986.59
2022-09-28T05:48:48.781Z,986.56
2022-09-28T05:49:29.312Z,986.62
2022-09-28T05:50:09.912Z,986.6
2022-09-28T05:50:50.398Z,986.63
2022-09-28T05:51:30.959Z,986.62
2022-09-28T05:52:11.446Z,986.62
2022-09-28T05:52:51.914Z,986.61
2022-09-28T06:31:43.450Z,986.9
2022-09-28T06:32:24.247Z,986.91
2022-09-28T06:33:04.989Z,986.94
2022-09-28T06:33:45.530Z,986.96
2022-09-28T06:34:26.052Z,986.94
2022-09-28T06:35:06.620Z,986.97
2022-09-28T06:35:47.433Z,986.97
2022-09-28T06:36:28.669Z,987.05
2022-09-28T06:37:09.355Z,986.98
2022-09-28T06:37:49.856Z,986.96
2022-09-28T06:38:30.386Z,986.96
2022-09-28T06:39:10.959Z,987.01
2022-09-28T06:39:51.462Z,986.98
2022-09-28T06:40:32.063Z,986.99
2022-09-28T06:41:12.666Z,987.02
2022-09-28T06:41:54.032Z,986.98
2022-09-28T06:42:35.768Z,987.03
2022-09-28T06:43:17.813Z,987.03
2022-09-28T06:43:58.546Z,987.07
2022-09-28T06:44:39.054Z,987.07
2022-09-28T06:47:33.579Z,987.12
2022-09-28T06:48:14.862Z,987.11
2022-09-28T06:48:55.988Z,987.12
2022-09-28T06:49:36.598Z,987.12
2022-09-28T06:50:17.066Z,987.15
2022-09-28T06:50:57.658Z,987.14
2022-09-28T06:51:38.161Z,987.17
2022-09-28T06:52:18.918Z,987.15
2022-09-28T06:52:59.525Z,987.18
2022-09-28T06:53:40.665Z,987.15
2022-09-28T06:54:21.245Z,987.15
2022-09-28T06:55:01.751Z,987.16
2022-09-28T06:55:42.374Z,987.22
2022-09-28T06:56:22.910Z,987.17
2022-09-28T06:57:03.390Z,987.16
2022-09-28T07:00:02.472Z,987.18
2022-09-28T07:00:43.023Z,987.2
2022-09-28T07:01:23.877Z,987.2
2022-09-28T07:02:04.581Z,987.27
2022-09-28T07:02:45.284Z,987.21
2022-09-28T07:03:25.825Z,987.24
2022-09-28T07:04:46.964Z,987.23
2022-09-28T07:05:27.513Z,987.26
2022-09-28T07:06:08.196Z,987.27
2022-09-28T07:06:49.442Z,987.21
2022-09-28T07:07:29.963Z,987.26
2022-09-28T07:08:10.481Z,987.33
2022-09-28T07:11:09.339Z,987.33
2022-09-28T07:11:49.773Z,987.31
2022-09-28T07:12:31.050Z,987.32
2022-09-28T07:13:29.556Z,987.33
2022-09-28T07:13:52.166Z,987.31
2022-09-28T07:14:46.448Z,987.28
2022-09-28T07:15:13.242Z,987.28
2022-09-28T07:15:53.951Z,987.3
2022-09-28T07:16:55.852Z,987.26
2022-09-28T07:17:15.422Z,987.34
2022-09-28T07:18:01.805Z,987.3
2022-09-28T07:22:37.801Z,987.39
2022-09-28T07:23:16.239Z,987.34
2022-09-28T07:23:53.084Z,987.35
2022-09-28T07:24:28.920Z,987.33
2022-09-28T07:25:08.957Z,987.31
2022-09-28T07:25:50.299Z,987.38
2022-09-28T07:26:30.807Z,987.38
2022-09-28T07:27:11.569Z,987.38
2022-09-28T07:27:52.852Z,987.37
2022-09-28T07:28:33.422Z,987.39
2022-09-28T07:30:32.832Z,987.37
2022-09-28T07:31:13.486Z,987.42
2022-09-28T07:31:53.890Z,987.39
2022-09-28T07:32:34.509Z,987.41
2022-09-28T07:33:15.083Z,987.39
2022-09-28T07:33:55.569Z,987.38
2022-09-28T07:34:36.099Z,987.45
2022-09-28T07:35:16.645Z,987.44
2022-09-28T07:35:57.171Z,987.41
2022-09-28T07:36:37.675Z,987.47
2022-09-28T07:37:18.166Z,987.41
2022-09-28T07:37:58.650Z,987.48
2022-09-28T07:38:39.179Z,987.5
2022-09-28T07:39:19.735Z,987.48
2022-09-28T07:40:00.276Z,987.53
2022-09-28T07:40:43.177Z,987.52
2022-09-28T07:41:21.361Z,987.53
2022-09-28T07:42:02.862Z,987.55
2022-09-28T07:42:42.502Z,987.58
2022-09-28T07:43:23.058Z,987.6
2022-09-28T07:44:03.597Z,987.58
2022-09-28T07:44:44.286Z,987.59
2022-09-28T07:45:24.900Z,987.64
2022-09-28T07:46:05.413Z,987.66
2022-09-28T07:46:45.890Z,987.74
2022-09-28T07:47:28.730Z,987.71
2022-09-28T07:48:06.991Z,987.71
2022-09-28T07:48:47.536Z,987.71
2022-09-28T07:49:28.046Z,987.76
2022-09-28T07:50:08.487Z,987.79
2022-09-28T07:50:49.002Z,987.76
2022-09-28T07:51:29.619Z,987.77
2022-09-28T07:53:27.424Z,987.78
2022-09-28T07:54:08.173Z,987.81
2022-09-28T07:54:48.954Z,987.81
2022-09-28T07:55:33.470Z,987.8
2022-09-28T07:56:14.229Z,987.8
2022-09-28T07:56:55.529Z,987.81
2022-09-28T07:57:36.029Z,987.84
2022-09-28T07:58:16.758Z,987.85
2022-09-28T07:58:58.033Z,987.85
2022-09-28T07:59:39.348Z,987.81
2022-09-28T08:00:19.968Z,987.81
2022-09-28T08:01:00.453Z,987.84
2022-09-28T08:01:41.066Z,987.85
2022-09-28T08:02:21.569Z,987.83
2022-09-28T08:03:02.036Z,987.83
2022-09-28T08:03:42.632Z,987.83
2022-09-28T08:04:24.113Z,987.84
2022-09-28T08:05:04.669Z,987.8
2022-09-28T08:05:45.195Z,987.83
2022-09-28T08:06:25.659Z,987.83
2022-09-28T08:07:06.330Z,987.82
2022-09-28T08:07:47.137Z,987.84
2022-09-28T08:08:27.645Z,987.66
2022-09-28T08:09:08.237Z,987.87
2022-09-28T08:12:27.348Z,987.8
2022-09-28T08:13:08.748Z,987.85
2022-09-28T08:13:49.002Z,987.87
2022-09-28T08:14:29.532Z,987.87
2022-09-28T08:15:10.329Z,987.83
2022-09-28T08:15:51.145Z,987.84
2022-09-28T08:16:31.638Z,987.81
2022-09-28T08:17:12.257Z,987.86
2022-09-28T08:17:52.705Z,987.89
2022-09-28T08:18:33.211Z,987.93
2022-09-28T08:19:13.916Z,987.89
2022-09-28T08:19:54.257Z,987.89
2022-09-28T08:20:34.926Z,987.9
2022-09-28T08:21:16.151Z,987.95
2022-09-28T08:23:10.696Z,987.91
2022-09-28T08:25:24.778Z,987.87
2022-09-28T08:26:05.867Z,987.89
2022-09-28T08:26:46.935Z,987.99
2022-09-28T08:27:28.045Z,987.97
2022-09-28T08:28:09.074Z,987.92
2022-09-28T08:28:50.211Z,987.96
2022-09-28T08:29:34.031Z,987.98
2022-09-28T08:30:15.831Z,988
2022-09-28T08:30:57.067Z,987.94
2022-09-28T08:31:38.047Z,988.01
2022-09-28T08:32:19.535Z,987.99
2022-09-28T08:33:00.509Z,988.02
2022-09-28T08:33:41.628Z,988.09
2022-09-28T08:36:40.803Z,988.07
2022-09-28T08:37:22.107Z,988.09
2022-09-28T08:38:03.263Z,988.07
2022-09-28T08:38:44.930Z,988.1
2022-09-28T08:39:26.246Z,988.1
2022-09-28T08:40:08.403Z,988.1
2022-09-28T08:40:49.447Z,988.1
2022-09-28T08:41:30.421Z,988.05
2022-09-28T08:42:11.567Z,988.11
2022-09-28T08:42:52.633Z,988.09
2022-09-28T08:43:33.780Z,988.12
2022-09-28T08:44:15.063Z,988.14
2022-09-28T08:47:35.634Z,988.16
2022-09-28T08:48:16.265Z,988.16
2022-09-28T08:49:13.729Z,988.17
2022-09-28T08:49:37.269Z,988.16
2022-09-28T08:50:17.614Z,988.16
2022-09-28T08:50:58.155Z,988.21
2022-09-28T08:51:38.692Z,988.05
2022-09-28T08:52:19.248Z,988.12
2022-09-28T08:52:59.773Z,988.15
2022-09-28T08:53:40.269Z,988.19
2022-09-28T08:54:20.789Z,988.2
2022-09-28T08:55:01.294Z,988.22
2022-09-28T08:55:41.830Z,988.17
2022-09-28T08:56:22.315Z,988.22
2022-09-28T08:57:02.796Z,988.26
2022-09-28T08:57:43.335Z,988.22
2022-09-28T08:58:23.843Z,988.25
2022-09-28T08:59:04.377Z,988.27
2022-09-28T08:59:44.956Z,988.23
2022-09-28T09:00:25.498Z,988.27
2022-09-28T09:01:07.083Z,988.27
2022-09-28T09:01:47.515Z,988.24
2022-09-28T09:02:28.427Z,988.26
2022-09-28T09:03:08.722Z,988.22
2022-09-28T09:03:49.272Z,988.24
2022-09-28T09:04:29.782Z,988.32
2022-09-28T09:05:10.279Z,988.31
2022-09-28T09:05:50.870Z,988.3
2022-09-28T09:06:31.411Z,988.26
2022-09-28T09:07:11.909Z,988.28
2022-09-28T09:07:52.386Z,988.32
2022-09-28T09:08:32.911Z,988.35
2022-09-28T09:09:13.437Z,988.34
2022-09-28T09:09:54.031Z,988.32
2022-09-28T09:10:34.518Z,988.29
2022-09-28T09:11:15.169Z,988.26
2022-09-28T09:11:55.668Z,988.34
2022-09-28T09:12:36.264Z,988.3
2022-09-28T09:13:16.804Z,988.29
2022-09-28T09:13:57.359Z,988.32
2022-09-28T09:14:37.816Z,988.29
2022-09-28T09:15:18.338Z,988.39
2022-09-28T09:15:58.820Z,988.36
2022-09-28T09:16:39.363Z,988.38
2022-09-28T09:17:19.835Z,988.34
2022-09-28T09:18:00.368Z,988.42
2022-09-28T09:18:41.382Z,988.38
2022-09-28T09:19:21.830Z,988.39
2022-09-28T09:20:02.372Z,988.37
2022-09-28T09:20:43.566Z,988.37
2022-09-28T09:21:24.107Z,988.41
2022-09-28T09:22:04.718Z,988.39
2022-09-28T09:22:45.225Z,988.4
2022-09-28T09:23:25.776Z,988.37
2022-09-28T09:24:06.297Z,988.4
2022-09-28T09:24:46.836Z,988.32
2022-09-28T09:25:27.399Z,988.26
2022-09-28T09:26:07.931Z,988.39
2022-09-28T09:26:48.480Z,988.37
2022-09-28T09:27:28.987Z,988.42
2022-09-28T09:28:09.501Z,988.41
2022-09-28T09:28:50.066Z,988.39
2022-09-28T09:29:30.489Z,988.41
2022-09-28T09:30:11.057Z,988.41
2022-09-28T09:30:51.705Z,988.39
2022-09-28T09:31:32.157Z,988.38
2022-09-28T09:32:12.795Z,988.39
2022-09-28T09:32:53.467Z,988.37
2022-09-28T09:33:35.333Z,988.44
2022-09-28T09:34:15.764Z,988.41
2022-09-28T09:34:56.291Z,988.4
2022-09-28T09:35:36.834Z,988.49
2022-09-28T09:36:17.391Z,988.44
2022-09-28T09:36:57.873Z,988.39
2022-09-28T09:37:38.376Z,988.38
2022-09-28T09:40:52.525Z,988.46
2022-09-28T09:41:33.155Z,988.48
2022-09-28T09:42:13.582Z,988.45
2022-09-28T09:42:54.135Z,988.47
2022-09-28T09:43:34.749Z,988.49
2022-09-28T09:44:15.318Z,988.48
2022-09-28T09:44:55.854Z,988.54
2022-09-28T09:45:36.394Z,988.49
2022-09-28T09:46:17.899Z,988.51
2022-09-28T09:46:58.428Z,988.5
2022-09-28T09:47:38.985Z,988.45
2022-09-28T09:48:19.553Z,988.51
2022-09-28T09:49:00.024Z,988.49
2022-09-28T09:49:40.650Z,988.52
2022-09-28T09:50:21.220Z,988.54
2022-09-28T09:51:01.735Z,988.53
2022-09-28T09:51:42.301Z,988.59
2022-09-28T09:52:23.126Z,988.53
2022-09-28T09:53:03.642Z,988.58
2022-09-28T09:56:22.813Z,988.56
2022-09-28T09:57:03.442Z,988.6
2022-09-28T09:57:44.035Z,988.53
2022-09-28T09:58:24.660Z,988.56
2022-09-28T09:59:05.147Z,988.54
2022-09-28T09:59:45.633Z,988.49
2022-09-28T10:00:26.345Z,988.56
2022-09-28T10:01:06.834Z,988.54
2022-09-28T10:01:48.346Z,988.55
2022-09-28T10:02:28.897Z,988.53
2022-09-28T10:03:09.359Z,988.59
2022-09-28T10:03:49.940Z,988.56
2022-09-28T10:04:30.359Z,988.54
2022-09-28T10:05:10.865Z,988.51
2022-09-28T10:07:23.650Z,988.56
2022-09-28T10:08:04.165Z,988.58
2022-09-28T10:08:44.757Z,988.56
2022-09-28T10:09:25.323Z,988.59
2022-09-28T10:10:05.809Z,988.57
2022-09-28T10:10:46.308Z,988.56
2022-09-28T10:11:26.903Z,988.53
2022-09-28T10:12:07.546Z,988.6
2022-09-28T10:12:49.434Z,988.54
2022-09-28T10:13:28.733Z,988.57
2022-09-28T10:14:09.264Z,988.6
2022-09-28T10:14:49.773Z,988.54
2022-09-28T10:15:30.311Z,988.57
2022-09-28T10:16:10.800Z,988.52
2022-09-28T10:16:51.377Z,988.55
2022-09-28T10:17:31.961Z,988.54
2022-09-28T10:18:12.540Z,988.6
2022-09-28T10:18:53.108Z,988.54
2022-09-28T10:19:33.623Z,988.51
2022-09-28T10:20:14.157Z,988.54
2022-09-28T10:20:54.680Z,988.55
2022-09-28T10:21:35.167Z,988.56
2022-09-28T10:22:15.684Z,988.55
2022-09-28T10:22:56.198Z,988.55
2022-09-28T10:23:36.737Z,988.52
2022-09-28T10:24:17.235Z,988.51
2022-09-28T10:24:57.845Z,988.52
2022-09-28T10:25:38.343Z,988.57
2022-09-28T10:26:22.842Z,988.56
2022-09-28T10:26:59.579Z,988.47
2022-09-28T10:27:40.067Z,988.48
2022-09-28T10:28:20.637Z,988.56
2022-09-28T10:29:01.160Z,988.49